sensor_id;sensor_type;location;lat;lon;timestamp;P1;durP1;ratioP1;P2;durP2;ratioP2
52188;SDS011;38162;45.926;13.608;2023-07-08T00:00:48;6.47;;;4.70;;
52188;SDS011;38162;45.926;13.608;2023-07-08T00:03:14;7.40;;;4.80;;
52188;SDS011;38162;45.926;13.608;2023-07-08T00:05:40;9.65;;;5.25;;
52188;SDS011;38162;45.926;13.608;2023-07-08T00:08:12;6.90;;;5.25;;
52188;SDS011;38162;45.926;13.608;2023-07-08T00:10:39;6.93;;;4.95;;
52188;SDS011;38162;45.926;13.608;2023-07-08T00:13:05;7.75;;;4.57;;
52188;SDS011;38162;45.926;13.608;2023-07-08T00:15:32;9.02;;;5.07;;
52188;SDS011;38162;45.926;13.608;2023-07-08T00:17:58;7.55;;;4.72;;
52188;SDS011;38162;45.926;13.608;2023-07-08T00:20:32;7.22;;;5.13;;
52188;SDS011;38162;45.926;13.608;2023-07-08T00:23:02;9.07;;;5.38;;
52188;SDS011;38162;45.926;13.608;2023-07-08T00:25:28;7.25;;;5.03;;
52188;SDS011;38162;45.926;13.608;2023-07-08T00:27:54;14.07;;;5.53;;
52188;SDS011;38162;45.926;13.608;2023-07-08T00:30:21;7.53;;;5.80;;
52188;SDS011;38162;45.926;13.608;2023-07-08T00:32:50;6.35;;;5.30;;
52188;SDS011;38162;45.926;13.608;2023-07-08T00:35:28;8.35;;;5.22;;
52188;SDS011;38162;45.926;13.608;2023-07-08T00:38:09;7.50;;;5.20;;
52188;SDS011;38162;45.926;13.608;2023-07-08T00:43:34;6.68;;;5.15;;
52188;SDS011;38162;45.926;13.608;2023-07-08T00:48:53;8.00;;;5.13;;
52188;SDS011;38162;45.926;13.608;2023-07-08T00:51:24;11.38;;;5.60;;
52188;SDS011;38162;45.926;13.608;2023-07-08T00:53:50;10.75;;;6.03;;
52188;SDS011;38162;45.926;13.608;2023-07-08T00:56:18;6.78;;;4.90;;
52188;SDS011;38162;45.926;13.608;2023-07-08T00:58:51;12.75;;;5.60;;
52188;SDS011;38162;45.926;13.608;2023-07-08T01:01:28;8.45;;;5.35;;
52188;SDS011;38162;45.926;13.608;2023-07-08T01:04:00;8.60;;;4.95;;
52188;SDS011;38162;45.926;13.608;2023-07-08T01:06:46;13.20;;;5.55;;
52188;SDS011;38162;45.926;13.608;2023-07-08T01:09:18;7.40;;;5.57;;
52188;SDS011;38162;45.926;13.608;2023-07-08T01:11:44;8.05;;;5.70;;
52188;SDS011;38162;45.926;13.608;2023-07-08T01:14:11;9.95;;;5.28;;
52188;SDS011;38162;45.926;13.608;2023-07-08T01:16:41;7.25;;;5.30;;
52188;SDS011;38162;45.926;13.608;2023-07-08T01:19:09;9.38;;;5.20;;
52188;SDS011;38162;45.926;13.608;2023-07-08T01:21:57;7.32;;;5.32;;
52188;SDS011;38162;45.926;13.608;2023-07-08T01:24:24;7.57;;;5.55;;
52188;SDS011;38162;45.926;13.608;2023-07-08T01:26:51;8.60;;;5.30;;
52188;SDS011;38162;45.926;13.608;2023-07-08T01:29:17;6.85;;;4.90;;
52188;SDS011;38162;45.926;13.608;2023-07-08T01:31:43;7.55;;;5.00;;
52188;SDS011;38162;45.926;13.608;2023-07-08T01:34:14;6.25;;;5.45;;
52188;SDS011;38162;45.926;13.608;2023-07-08T01:36:42;7.15;;;5.07;;
52188;SDS011;38162;45.926;13.608;2023-07-08T01:39:13;8.45;;;4.97;;
52188;SDS011;38162;45.926;13.608;2023-07-08T01:41:42;9.07;;;5.32;;
52188;SDS011;38162;45.926;13.608;2023-07-08T01:44:23;6.75;;;6.03;;
52188;SDS011;38162;45.926;13.608;2023-07-08T01:46:53;9.15;;;5.18;;
52188;SDS011;38162;45.926;13.608;2023-07-08T01:49:30;7.00;;;5.35;;
52188;SDS011;38162;45.926;13.608;2023-07-08T01:51:57;6.40;;;5.18;;
52188;SDS011;38162;45.926;13.608;2023-07-08T01:54:23;9.88;;;5.70;;
52188;SDS011;38162;45.926;13.608;2023-07-08T01:56:54;7.10;;;5.45;;
52188;SDS011;38162;45.926;13.608;2023-07-08T01:59:22;7.72;;;4.65;;
52188;SDS011;38162;45.926;13.608;2023-07-08T02:01:49;7.28;;;5.57;;
52188;SDS011;38162;45.926;13.608;2023-07-08T02:04:19;7.72;;;5.47;;
52188;SDS011;38162;45.926;13.608;2023-07-08T02:06:50;7.03;;;5.28;;
52188;SDS011;38162;45.926;13.608;2023-07-08T02:09:20;7.28;;;5.35;;
52188;SDS011;38162;45.926;13.608;2023-07-08T02:11:46;7.05;;;5.10;;
52188;SDS011;38162;45.926;13.608;2023-07-08T02:14:12;7.38;;;5.00;;
52188;SDS011;38162;45.926;13.608;2023-07-08T02:16:38;8.77;;;4.80;;
52188;SDS011;38162;45.926;13.608;2023-07-08T02:19:03;8.65;;;4.85;;
52188;SDS011;38162;45.926;13.608;2023-07-08T02:21:29;6.07;;;4.80;;
52188;SDS011;38162;45.926;13.608;2023-07-08T02:23:56;7.85;;;5.32;;
52188;SDS011;38162;45.926;13.608;2023-07-08T02:26:22;5.32;;;4.53;;
52188;SDS011;38162;45.926;13.608;2023-07-08T02:28:48;7.68;;;5.20;;
52188;SDS011;38162;45.926;13.608;2023-07-08T02:31:14;9.82;;;5.30;;
52188;SDS011;38162;45.926;13.608;2023-07-08T02:33:40;10.18;;;5.40;;
52188;SDS011;38162;45.926;13.608;2023-07-08T02:36:06;7.90;;;5.07;;
52188;SDS011;38162;45.926;13.608;2023-07-08T02:38:32;10.40;;;5.53;;
52188;SDS011;38162;45.926;13.608;2023-07-08T02:40:59;7.78;;;5.25;;
52188;SDS011;38162;45.926;13.608;2023-07-08T02:43:25;5.72;;;4.70;;
52188;SDS011;38162;45.926;13.608;2023-07-08T02:45:51;10.60;;;5.30;;
52188;SDS011;38162;45.926;13.608;2023-07-08T02:48:18;8.85;;;5.50;;
52188;SDS011;38162;45.926;13.608;2023-07-08T02:50:44;9.05;;;5.60;;
52188;SDS011;38162;45.926;13.608;2023-07-08T02:53:10;10.07;;;5.30;;
52188;SDS011;38162;45.926;13.608;2023-07-08T02:55:37;10.82;;;5.00;;
52188;SDS011;38162;45.926;13.608;2023-07-08T02:58:04;7.90;;;5.15;;
52188;SDS011;38162;45.926;13.608;2023-07-08T03:00:29;6.68;;;4.75;;
52188;SDS011;38162;45.926;13.608;2023-07-08T03:02:55;9.23;;;5.22;;
52188;SDS011;38162;45.926;13.608;2023-07-08T03:05:21;8.60;;;4.97;;
52188;SDS011;38162;45.926;13.608;2023-07-08T03:07:46;7.20;;;5.10;;
52188;SDS011;38162;45.926;13.608;2023-07-08T03:10:12;76.15;;;7.55;;
52188;SDS011;38162;45.926;13.608;2023-07-08T03:12:38;7.47;;;4.90;;
52188;SDS011;38162;45.926;13.608;2023-07-08T03:15:04;7.93;;;5.45;;
52188;SDS011;38162;45.926;13.608;2023-07-08T03:17:30;7.30;;;4.55;;
52188;SDS011;38162;45.926;13.608;2023-07-08T03:19:56;8.05;;;5.20;;
52188;SDS011;38162;45.926;13.608;2023-07-08T03:22:22;8.40;;;5.05;;
52188;SDS011;38162;45.926;13.608;2023-07-08T03:24:48;10.10;;;5.07;;
52188;SDS011;38162;45.926;13.608;2023-07-08T03:27:14;7.88;;;5.47;;
52188;SDS011;38162;45.926;13.608;2023-07-08T03:29:40;10.60;;;5.03;;
52188;SDS011;38162;45.926;13.608;2023-07-08T03:32:10;7.97;;;4.57;;
52188;SDS011;38162;45.926;13.608;2023-07-08T03:34:37;7.35;;;5.07;;
52188;SDS011;38162;45.926;13.608;2023-07-08T03:37:03;7.32;;;5.50;;
52188;SDS011;38162;45.926;13.608;2023-07-08T03:39:30;9.05;;;5.18;;
52188;SDS011;38162;45.926;13.608;2023-07-08T03:41:58;7.10;;;4.88;;
52188;SDS011;38162;45.926;13.608;2023-07-08T03:44:24;6.57;;;4.82;;
52188;SDS011;38162;45.926;13.608;2023-07-08T03:46:50;6.53;;;4.63;;
52188;SDS011;38162;45.926;13.608;2023-07-08T03:49:17;6.47;;;5.03;;
52188;SDS011;38162;45.926;13.608;2023-07-08T03:54:15;5.45;;;4.68;;
52188;SDS011;38162;45.926;13.608;2023-07-08T03:56:42;5.18;;;4.53;;
52188;SDS011;38162;45.926;13.608;2023-07-08T03:59:08;7.47;;;5.30;;
52188;SDS011;38162;45.926;13.608;2023-07-08T04:01:34;8.85;;;4.85;;
52188;SDS011;38162;45.926;13.608;2023-07-08T04:04:00;6.78;;;4.85;;
52188;SDS011;38162;45.926;13.608;2023-07-08T04:06:26;7.65;;;4.90;;
52188;SDS011;38162;45.926;13.608;2023-07-08T04:08:56;9.38;;;4.97;;
52188;SDS011;38162;45.926;13.608;2023-07-08T04:11:22;5.60;;;4.45;;
52188;SDS011;38162;45.926;13.608;2023-07-08T04:13:49;10.50;;;5.20;;
52188;SDS011;38162;45.926;13.608;2023-07-08T04:18:48;7.88;;;4.78;;
52188;SDS011;38162;45.926;13.608;2023-07-08T04:21:16;6.72;;;4.70;;
52188;SDS011;38162;45.926;13.608;2023-07-08T04:23:43;7.28;;;4.65;;
52188;SDS011;38162;45.926;13.608;2023-07-08T04:26:09;7.55;;;5.32;;
52188;SDS011;38162;45.926;13.608;2023-07-08T04:28:35;9.43;;;4.80;;
52188;SDS011;38162;45.926;13.608;2023-07-08T04:31:01;7.65;;;5.07;;
52188;SDS011;38162;45.926;13.608;2023-07-08T04:33:27;7.90;;;4.68;;
52188;SDS011;38162;45.926;13.608;2023-07-08T04:35:52;7.50;;;4.80;;
52188;SDS011;38162;45.926;13.608;2023-07-08T04:38:23;10.68;;;4.82;;
52188;SDS011;38162;45.926;13.608;2023-07-08T04:40:50;11.13;;;5.28;;
52188;SDS011;38162;45.926;13.608;2023-07-08T04:43:17;8.52;;;4.95;;
52188;SDS011;38162;45.926;13.608;2023-07-08T04:45:45;8.07;;;5.00;;
52188;SDS011;38162;45.926;13.608;2023-07-08T04:48:15;9.30;;;5.00;;
52188;SDS011;38162;45.926;13.608;2023-07-08T04:50:48;12.38;;;5.18;;
52188;SDS011;38162;45.926;13.608;2023-07-08T04:53:15;11.38;;;5.38;;
52188;SDS011;38162;45.926;13.608;2023-07-08T04:55:42;9.65;;;5.30;;
52188;SDS011;38162;45.926;13.608;2023-07-08T04:58:14;11.07;;;5.18;;
52188;SDS011;38162;45.926;13.608;2023-07-08T05:00:40;9.40;;;4.95;;
52188;SDS011;38162;45.926;13.608;2023-07-08T05:03:06;8.88;;;5.47;;
52188;SDS011;38162;45.926;13.608;2023-07-08T05:05:31;7.82;;;5.43;;
52188;SDS011;38162;45.926;13.608;2023-07-08T05:07:57;13.13;;;5.07;;
52188;SDS011;38162;45.926;13.608;2023-07-08T05:10:23;6.60;;;5.00;;
52188;SDS011;38162;45.926;13.608;2023-07-08T05:12:49;13.52;;;5.32;;
52188;SDS011;38162;45.926;13.608;2023-07-08T05:15:15;9.55;;;5.72;;
52188;SDS011;38162;45.926;13.608;2023-07-08T05:17:41;12.82;;;6.35;;
52188;SDS011;38162;45.926;13.608;2023-07-08T05:20:08;9.95;;;5.05;;
52188;SDS011;38162;45.926;13.608;2023-07-08T05:22:36;8.07;;;5.00;;
52188;SDS011;38162;45.926;13.608;2023-07-08T05:25:02;7.95;;;5.03;;
52188;SDS011;38162;45.926;13.608;2023-07-08T05:27:28;8.55;;;5.63;;
52188;SDS011;38162;45.926;13.608;2023-07-08T05:29:54;8.45;;;4.88;;
52188;SDS011;38162;45.926;13.608;2023-07-08T05:32:20;13.98;;;6.60;;
52188;SDS011;38162;45.926;13.608;2023-07-08T05:34:45;22.45;;;5.57;;
52188;SDS011;38162;45.926;13.608;2023-07-08T05:37:12;19.27;;;6.32;;
52188;SDS011;38162;45.926;13.608;2023-07-08T05:39:39;51.90;;;8.02;;
52188;SDS011;38162;45.926;13.608;2023-07-08T05:42:05;58.40;;;10.13;;
52188;SDS011;38162;45.926;13.608;2023-07-08T05:44:31;56.67;;;9.85;;
52188;SDS011;38162;45.926;13.608;2023-07-08T05:46:57;28.58;;;6.90;;
52188;SDS011;38162;45.926;13.608;2023-07-08T05:49:23;7.35;;;4.93;;
52188;SDS011;38162;45.926;13.608;2023-07-08T05:51:48;9.93;;;5.32;;
52188;SDS011;38162;45.926;13.608;2023-07-08T05:54:14;11.25;;;4.97;;
52188;SDS011;38162;45.926;13.608;2023-07-08T05:56:40;6.85;;;4.78;;
52188;SDS011;38162;45.926;13.608;2023-07-08T05:59:06;11.55;;;4.65;;
52188;SDS011;38162;45.926;13.608;2023-07-08T06:01:32;8.10;;;4.82;;
52188;SDS011;38162;45.926;13.608;2023-07-08T06:03:58;6.82;;;5.28;;
52188;SDS011;38162;45.926;13.608;2023-07-08T06:06:27;6.47;;;4.57;;
52188;SDS011;38162;45.926;13.608;2023-07-08T06:08:53;9.68;;;5.40;;
52188;SDS011;38162;45.926;13.608;2023-07-08T06:11:19;6.78;;;5.03;;
52188;SDS011;38162;45.926;13.608;2023-07-08T06:13:46;10.82;;;4.80;;
52188;SDS011;38162;45.926;13.608;2023-07-08T06:16:12;10.02;;;4.93;;
52188;SDS011;38162;45.926;13.608;2023-07-08T06:18:38;8.68;;;5.22;;
52188;SDS011;38162;45.926;13.608;2023-07-08T06:21:05;7.30;;;4.80;;
52188;SDS011;38162;45.926;13.608;2023-07-08T06:23:31;8.32;;;5.00;;
52188;SDS011;38162;45.926;13.608;2023-07-08T06:25:57;8.40;;;5.22;;
52188;SDS011;38162;45.926;13.608;2023-07-08T06:28:23;8.75;;;5.22;;
52188;SDS011;38162;45.926;13.608;2023-07-08T06:30:48;7.07;;;5.00;;
52188;SDS011;38162;45.926;13.608;2023-07-08T06:33:14;9.52;;;4.43;;
52188;SDS011;38162;45.926;13.608;2023-07-08T06:35:41;12.10;;;4.90;;
52188;SDS011;38162;45.926;13.608;2023-07-08T06:38:07;12.60;;;5.20;;
52188;SDS011;38162;45.926;13.608;2023-07-08T06:40:34;6.60;;;4.80;;
52188;SDS011;38162;45.926;13.608;2023-07-08T06:43:00;10.20;;;5.53;;
52188;SDS011;38162;45.926;13.608;2023-07-08T06:45:27;14.77;;;5.25;;
52188;SDS011;38162;45.926;13.608;2023-07-08T06:47:53;11.75;;;5.38;;
52188;SDS011;38162;45.926;13.608;2023-07-08T06:50:18;15.13;;;5.63;;
52188;SDS011;38162;45.926;13.608;2023-07-08T06:52:44;8.32;;;5.20;;
52188;SDS011;38162;45.926;13.608;2023-07-08T06:55:10;8.63;;;5.22;;
52188;SDS011;38162;45.926;13.608;2023-07-08T06:57:36;6.07;;;4.38;;
52188;SDS011;38162;45.926;13.608;2023-07-08T07:00:06;10.50;;;5.10;;
52188;SDS011;38162;45.926;13.608;2023-07-08T07:02:33;8.90;;;4.90;;
52188;SDS011;38162;45.926;13.608;2023-07-08T07:04:59;9.00;;;5.25;;
52188;SDS011;38162;45.926;13.608;2023-07-08T07:07:25;8.93;;;5.00;;
52188;SDS011;38162;45.926;13.608;2023-07-08T07:09:51;6.90;;;4.70;;
52188;SDS011;38162;45.926;13.608;2023-07-08T07:12:18;6.43;;;5.20;;
52188;SDS011;38162;45.926;13.608;2023-07-08T07:14:44;6.97;;;4.93;;
52188;SDS011;38162;45.926;13.608;2023-07-08T07:17:10;8.38;;;5.25;;
52188;SDS011;38162;45.926;13.608;2023-07-08T07:19:36;9.02;;;6.07;;
52188;SDS011;38162;45.926;13.608;2023-07-08T07:22:02;9.18;;;6.65;;
52188;SDS011;38162;45.926;13.608;2023-07-08T07:24:28;16.17;;;6.95;;
52188;SDS011;38162;45.926;13.608;2023-07-08T07:26:53;10.63;;;6.78;;
52188;SDS011;38162;45.926;13.608;2023-07-08T07:29:21;10.38;;;6.00;;
52188;SDS011;38162;45.926;13.608;2023-07-08T07:31:48;7.13;;;4.95;;
52188;SDS011;38162;45.926;13.608;2023-07-08T07:34:14;7.82;;;5.00;;
52188;SDS011;38162;45.926;13.608;2023-07-08T07:36:40;10.23;;;5.07;;
52188;SDS011;38162;45.926;13.608;2023-07-08T07:39:06;5.78;;;4.35;;
52188;SDS011;38162;45.926;13.608;2023-07-08T07:41:31;9.73;;;4.38;;
52188;SDS011;38162;45.926;13.608;2023-07-08T07:43:57;7.28;;;4.35;;
52188;SDS011;38162;45.926;13.608;2023-07-08T07:46:23;5.93;;;4.35;;
52188;SDS011;38162;45.926;13.608;2023-07-08T07:48:49;4.97;;;4.18;;
52188;SDS011;38162;45.926;13.608;2023-07-08T07:51:14;4.80;;;4.00;;
52188;SDS011;38162;45.926;13.608;2023-07-08T07:53:40;6.10;;;3.95;;
52188;SDS011;38162;45.926;13.608;2023-07-08T07:56:06;5.63;;;4.30;;
52188;SDS011;38162;45.926;13.608;2023-07-08T07:58:32;5.60;;;3.80;;
52188;SDS011;38162;45.926;13.608;2023-07-08T08:00:58;6.72;;;4.05;;
52188;SDS011;38162;45.926;13.608;2023-07-08T08:03:24;6.70;;;4.20;;
52188;SDS011;38162;45.926;13.608;2023-07-08T08:05:50;6.05;;;3.97;;
52188;SDS011;38162;45.926;13.608;2023-07-08T08:08:16;6.38;;;4.30;;
52188;SDS011;38162;45.926;13.608;2023-07-08T08:10:42;6.25;;;3.83;;
52188;SDS011;38162;45.926;13.608;2023-07-08T08:13:08;4.85;;;3.78;;
52188;SDS011;38162;45.926;13.608;2023-07-08T08:15:34;7.05;;;4.13;;
52188;SDS011;38162;45.926;13.608;2023-07-08T08:18:00;10.35;;;4.07;;
52188;SDS011;38162;45.926;13.608;2023-07-08T08:20:27;8.57;;;3.83;;
52188;SDS011;38162;45.926;13.608;2023-07-08T08:22:53;6.13;;;4.10;;
52188;SDS011;38162;45.926;13.608;2023-07-08T08:25:20;5.85;;;3.75;;
52188;SDS011;38162;45.926;13.608;2023-07-08T08:27:47;6.85;;;4.35;;
52188;SDS011;38162;45.926;13.608;2023-07-08T08:30:12;6.63;;;4.20;;
52188;SDS011;38162;45.926;13.608;2023-07-08T08:32:38;5.25;;;3.78;;
52188;SDS011;38162;45.926;13.608;2023-07-08T08:35:04;6.38;;;4.10;;
52188;SDS011;38162;45.926;13.608;2023-07-08T08:37:30;5.55;;;4.05;;
52188;SDS011;38162;45.926;13.608;2023-07-08T08:39:56;7.28;;;3.92;;
52188;SDS011;38162;45.926;13.608;2023-07-08T08:42:38;5.20;;;3.88;;
52188;SDS011;38162;45.926;13.608;2023-07-08T08:45:07;6.65;;;3.85;;
52188;SDS011;38162;45.926;13.608;2023-07-08T08:47:39;5.55;;;4.45;;
52188;SDS011;38162;45.926;13.608;2023-07-08T08:52:45;6.13;;;4.30;;
52188;SDS011;38162;45.926;13.608;2023-07-08T08:55:11;5.53;;;4.40;;
52188;SDS011;38162;45.926;13.608;2023-07-08T08:57:42;6.78;;;4.70;;
52188;SDS011;38162;45.926;13.608;2023-07-08T09:00:10;9.20;;;4.63;;
52188;SDS011;38162;45.926;13.608;2023-07-08T09:02:51;8.50;;;4.97;;
52188;SDS011;38162;45.926;13.608;2023-07-08T09:05:22;6.10;;;4.35;;
52188;SDS011;38162;45.926;13.608;2023-07-08T09:10:56;6.90;;;4.93;;
52188;SDS011;38162;45.926;13.608;2023-07-08T09:16:07;5.80;;;4.25;;
52188;SDS011;38162;45.926;13.608;2023-07-08T09:19:28;7.30;;;4.18;;
52188;SDS011;38162;45.926;13.608;2023-07-08T09:22:06;6.88;;;4.43;;
52188;SDS011;38162;45.926;13.608;2023-07-08T09:27:14;7.30;;;4.10;;
52188;SDS011;38162;45.926;13.608;2023-07-08T09:29:40;10.90;;;4.53;;
52188;SDS011;38162;45.926;13.608;2023-07-08T09:34:45;10.02;;;5.30;;
52188;SDS011;38162;45.926;13.608;2023-07-08T09:37:22;4.93;;;4.20;;
52188;SDS011;38162;45.926;13.608;2023-07-08T09:39:57;5.38;;;4.22;;
52188;SDS011;38162;45.926;13.608;2023-07-08T09:42:25;5.30;;;4.20;;
52188;SDS011;38162;45.926;13.608;2023-07-08T09:44:58;7.70;;;4.45;;
52188;SDS011;38162;45.926;13.608;2023-07-08T09:47:36;8.98;;;4.28;;
52188;SDS011;38162;45.926;13.608;2023-07-08T09:50:15;7.60;;;4.28;;
52188;SDS011;38162;45.926;13.608;2023-07-08T09:52:43;7.68;;;4.20;;
52188;SDS011;38162;45.926;13.608;2023-07-08T09:55:11;8.40;;;4.95;;
52188;SDS011;38162;45.926;13.608;2023-07-08T09:57:37;6.25;;;4.40;;
52188;SDS011;38162;45.926;13.608;2023-07-08T10:00:07;5.47;;;4.53;;
52188;SDS011;38162;45.926;13.608;2023-07-08T10:02:49;4.95;;;4.03;;
52188;SDS011;38162;45.926;13.608;2023-07-08T10:07:47;7.68;;;4.30;;
52188;SDS011;38162;45.926;13.608;2023-07-08T10:10:18;5.40;;;4.10;;
52188;SDS011;38162;45.926;13.608;2023-07-08T10:12:58;8.60;;;4.75;;
52188;SDS011;38162;45.926;13.608;2023-07-08T10:15:39;5.65;;;4.70;;
52188;SDS011;38162;45.926;13.608;2023-07-08T10:18:28;7.90;;;4.20;;
52188;SDS011;38162;45.926;13.608;2023-07-08T10:23:43;8.13;;;4.88;;
52188;SDS011;38162;45.926;13.608;2023-07-08T10:26:40;9.68;;;4.85;;
52188;SDS011;38162;45.926;13.608;2023-07-08T10:43:04;8.38;;;4.43;;
52188;SDS011;38162;45.926;13.608;2023-07-08T10:51:09;11.48;;;4.80;;
52188;SDS011;38162;45.926;13.608;2023-07-08T10:54:34;6.47;;;4.70;;
52188;SDS011;38162;45.926;13.608;2023-07-08T11:07:52;7.05;;;4.38;;
52188;SDS011;38162;45.926;13.608;2023-07-08T11:10:26;5.88;;;4.68;;
52188;SDS011;38162;45.926;13.608;2023-07-08T11:13:04;9.98;;;4.95;;
52188;SDS011;38162;45.926;13.608;2023-07-08T11:18:13;6.47;;;4.63;;
52188;SDS011;38162;45.926;13.608;2023-07-08T11:24:04;6.68;;;4.32;;
52188;SDS011;38162;45.926;13.608;2023-07-08T11:26:58;5.57;;;4.38;;
52188;SDS011;38162;45.926;13.608;2023-07-08T11:32:08;7.15;;;4.50;;
52188;SDS011;38162;45.926;13.608;2023-07-08T11:34:39;8.15;;;4.60;;
52188;SDS011;38162;45.926;13.608;2023-07-08T11:37:07;6.18;;;4.32;;
52188;SDS011;38162;45.926;13.608;2023-07-08T11:39:44;7.25;;;4.25;;
52188;SDS011;38162;45.926;13.608;2023-07-08T11:42:34;7.72;;;4.88;;
52188;SDS011;38162;45.926;13.608;2023-07-08T11:45:11;5.00;;;4.50;;
52188;SDS011;38162;45.926;13.608;2023-07-08T11:47:41;6.78;;;4.70;;
52188;SDS011;38162;45.926;13.608;2023-07-08T11:50:32;11.75;;;5.05;;
52188;SDS011;38162;45.926;13.608;2023-07-08T11:53:02;7.78;;;4.50;;
52188;SDS011;38162;45.926;13.608;2023-07-08T11:58:07;7.72;;;4.50;;
52188;SDS011;38162;45.926;13.608;2023-07-08T12:00:45;6.68;;;4.43;;
52188;SDS011;38162;45.926;13.608;2023-07-08T12:03:39;7.05;;;4.85;;
52188;SDS011;38162;45.926;13.608;2023-07-08T12:08:54;6.50;;;4.47;;
52188;SDS011;38162;45.926;13.608;2023-07-08T12:11:24;7.70;;;4.50;;
52188;SDS011;38162;45.926;13.608;2023-07-08T12:14:01;6.50;;;4.18;;
52188;SDS011;38162;45.926;13.608;2023-07-08T12:16:29;7.18;;;4.63;;
52188;SDS011;38162;45.926;13.608;2023-07-08T12:18:59;7.07;;;4.47;;
52188;SDS011;38162;45.926;13.608;2023-07-08T12:21:29;7.40;;;4.88;;
52188;SDS011;38162;45.926;13.608;2023-07-08T12:24:03;7.50;;;4.45;;
52188;SDS011;38162;45.926;13.608;2023-07-08T12:26:31;6.82;;;4.65;;
52188;SDS011;38162;45.926;13.608;2023-07-08T12:28:58;6.03;;;4.50;;
52188;SDS011;38162;45.926;13.608;2023-07-08T12:31:23;10.88;;;4.57;;
52188;SDS011;38162;45.926;13.608;2023-07-08T12:33:50;8.60;;;4.72;;
52188;SDS011;38162;45.926;13.608;2023-07-08T12:36:18;6.90;;;4.15;;
52188;SDS011;38162;45.926;13.608;2023-07-08T12:38:50;5.50;;;4.75;;
52188;SDS011;38162;45.926;13.608;2023-07-08T12:41:25;6.60;;;4.60;;
52188;SDS011;38162;45.926;13.608;2023-07-08T12:43:51;6.13;;;4.30;;
52188;SDS011;38162;45.926;13.608;2023-07-08T12:46:18;6.68;;;5.18;;
52188;SDS011;38162;45.926;13.608;2023-07-08T12:48:45;6.85;;;4.78;;
52188;SDS011;38162;45.926;13.608;2023-07-08T12:51:17;6.82;;;4.38;;
52188;SDS011;38162;45.926;13.608;2023-07-08T12:53:50;6.57;;;4.72;;
52188;SDS011;38162;45.926;13.608;2023-07-08T12:56:17;10.60;;;4.75;;
52188;SDS011;38162;45.926;13.608;2023-07-08T12:58:45;6.95;;;4.53;;
52188;SDS011;38162;45.926;13.608;2023-07-08T13:01:18;6.65;;;4.57;;
52188;SDS011;38162;45.926;13.608;2023-07-08T13:03:47;6.57;;;4.22;;
52188;SDS011;38162;45.926;13.608;2023-07-08T13:06:16;7.10;;;4.40;;
52188;SDS011;38162;45.926;13.608;2023-07-08T13:08:45;10.25;;;4.70;;
52188;SDS011;38162;45.926;13.608;2023-07-08T13:11:13;8.02;;;4.97;;
52188;SDS011;38162;45.926;13.608;2023-07-08T13:14:00;8.80;;;5.03;;
52188;SDS011;38162;45.926;13.608;2023-07-08T13:16:31;7.35;;;4.80;;
52188;SDS011;38162;45.926;13.608;2023-07-08T13:18:59;7.45;;;5.13;;
52188;SDS011;38162;45.926;13.608;2023-07-08T13:21:25;6.22;;;4.82;;
52188;SDS011;38162;45.926;13.608;2023-07-08T13:23:52;11.00;;;4.80;;
52188;SDS011;38162;45.926;13.608;2023-07-08T13:26:23;6.50;;;4.50;;
52188;SDS011;38162;45.926;13.608;2023-07-08T13:28:59;8.35;;;4.95;;
52188;SDS011;38162;45.926;13.608;2023-07-08T13:31:43;9.07;;;4.80;;
52188;SDS011;38162;45.926;13.608;2023-07-08T13:34:19;6.25;;;4.80;;
52188;SDS011;38162;45.926;13.608;2023-07-08T13:36:49;6.78;;;4.75;;
52188;SDS011;38162;45.926;13.608;2023-07-08T13:39:17;5.45;;;4.63;;
52188;SDS011;38162;45.926;13.608;2023-07-08T13:41:51;12.05;;;5.13;;
52188;SDS011;38162;45.926;13.608;2023-07-08T13:44:17;9.02;;;4.75;;
52188;SDS011;38162;45.926;13.608;2023-07-08T13:51:40;6.40;;;4.53;;
52188;SDS011;38162;45.926;13.608;2023-07-08T13:54:41;10.10;;;5.20;;
52188;SDS011;38162;45.926;13.608;2023-07-08T13:57:03;9.40;;;4.72;;
52188;SDS011;38162;45.926;13.608;2023-07-08T13:59:34;6.38;;;5.05;;
52188;SDS011;38162;45.926;13.608;2023-07-08T14:01:59;7.53;;;5.10;;
52188;SDS011;38162;45.926;13.608;2023-07-08T14:04:32;8.85;;;4.80;;
52188;SDS011;38162;45.926;13.608;2023-07-08T14:06:59;7.05;;;5.15;;
52188;SDS011;38162;45.926;13.608;2023-07-08T14:09:26;8.80;;;4.82;;
52188;SDS011;38162;45.926;13.608;2023-07-08T14:11:52;10.50;;;5.00;;
52188;SDS011;38162;45.926;13.608;2023-07-08T14:14:18;6.07;;;4.85;;
52188;SDS011;38162;45.926;13.608;2023-07-08T14:16:47;7.40;;;5.32;;
52188;SDS011;38162;45.926;13.608;2023-07-08T14:21:43;6.78;;;5.05;;
52188;SDS011;38162;45.926;13.608;2023-07-08T14:24:10;7.20;;;4.85;;
52188;SDS011;38162;45.926;13.608;2023-07-08T14:26:42;5.85;;;4.60;;
52188;SDS011;38162;45.926;13.608;2023-07-08T14:29:08;8.80;;;5.03;;
52188;SDS011;38162;45.926;13.608;2023-07-08T14:31:34;9.25;;;4.60;;
52188;SDS011;38162;45.926;13.608;2023-07-08T14:34:11;8.57;;;4.30;;
52188;SDS011;38162;45.926;13.608;2023-07-08T14:36:42;6.40;;;4.75;;
52188;SDS011;38162;45.926;13.608;2023-07-08T14:39:11;8.57;;;4.55;;
52188;SDS011;38162;45.926;13.608;2023-07-08T14:41:38;7.90;;;4.80;;
52188;SDS011;38162;45.926;13.608;2023-07-08T14:44:24;6.80;;;4.70;;
52188;SDS011;38162;45.926;13.608;2023-07-08T14:46:54;6.25;;;5.13;;
52188;SDS011;38162;45.926;13.608;2023-07-08T14:49:22;8.32;;;4.93;;
52188;SDS011;38162;45.926;13.608;2023-07-08T14:51:48;9.60;;;4.80;;
52188;SDS011;38162;45.926;13.608;2023-07-08T14:54:15;6.30;;;4.70;;
52188;SDS011;38162;45.926;13.608;2023-07-08T14:56:41;6.88;;;4.60;;
52188;SDS011;38162;45.926;13.608;2023-07-08T14:59:14;6.93;;;4.70;;
52188;SDS011;38162;45.926;13.608;2023-07-08T15:01:43;5.55;;;4.70;;
52188;SDS011;38162;45.926;13.608;2023-07-08T15:04:13;10.68;;;5.28;;
52188;SDS011;38162;45.926;13.608;2023-07-08T15:06:41;6.05;;;4.30;;
52188;SDS011;38162;45.926;13.608;2023-07-08T15:09:08;5.60;;;4.80;;
52188;SDS011;38162;45.926;13.608;2023-07-08T15:11:35;8.10;;;4.78;;
52188;SDS011;38162;45.926;13.608;2023-07-08T15:14:03;6.20;;;5.00;;
52188;SDS011;38162;45.926;13.608;2023-07-08T15:16:30;6.88;;;5.03;;
52188;SDS011;38162;45.926;13.608;2023-07-08T15:18:56;5.85;;;5.05;;
52188;SDS011;38162;45.926;13.608;2023-07-08T15:21:22;6.57;;;5.05;;
52188;SDS011;38162;45.926;13.608;2023-07-08T15:23:48;7.15;;;5.05;;
52188;SDS011;38162;45.926;13.608;2023-07-08T15:26:14;9.55;;;4.78;;
52188;SDS011;38162;45.926;13.608;2023-07-08T15:28:41;9.70;;;5.38;;
52188;SDS011;38162;45.926;13.608;2023-07-08T15:31:13;6.13;;;5.15;;
52188;SDS011;38162;45.926;13.608;2023-07-08T15:33:45;9.70;;;5.10;;
52188;SDS011;38162;45.926;13.608;2023-07-08T15:36:11;5.30;;;4.57;;
52188;SDS011;38162;45.926;13.608;2023-07-08T15:38:41;6.30;;;4.70;;
52188;SDS011;38162;45.926;13.608;2023-07-08T15:41:18;9.65;;;4.90;;
52188;SDS011;38162;45.926;13.608;2023-07-08T15:43:49;10.70;;;5.40;;
52188;SDS011;38162;45.926;13.608;2023-07-08T15:46:18;5.78;;;4.45;;
52188;SDS011;38162;45.926;13.608;2023-07-08T15:48:44;10.55;;;5.90;;
52188;SDS011;38162;45.926;13.608;2023-07-08T15:51:13;11.43;;;4.95;;
52188;SDS011;38162;45.926;13.608;2023-07-08T15:53:40;13.80;;;5.03;;
52188;SDS011;38162;45.926;13.608;2023-07-08T15:56:07;7.93;;;4.70;;
52188;SDS011;38162;45.926;13.608;2023-07-08T15:58:40;8.38;;;4.85;;
52188;SDS011;38162;45.926;13.608;2023-07-08T16:01:10;6.90;;;4.88;;
52188;SDS011;38162;45.926;13.608;2023-07-08T16:03:41;8.25;;;4.97;;
52188;SDS011;38162;45.926;13.608;2023-07-08T16:06:07;7.00;;;5.10;;